Time,TemperatureF,DewpointF,PressureIn,WindDirection,WindDirectionDegrees,WindSpeedMPH,WindSpeedGustMPH,Humidity,HourlyPrecipIn,Conditions,Clouds,dailyrainin,SolarRadiationWatts/m^2,SoftwareType,DateUTC
2013-01-03 00:03:00,29.0,28.0,-100.00,NE,47,0.0,0.0,96,0.00,,,0.04,0.000000,,2013-01-03 05:03:00,
2013-01-03 00:12:00,29.0,28.0,-100.00,NE,47,0.0,0.0,96,0.00,,,0.04,0.000000,,2013-01-03 05:12:00,
2013-01-03 00:33:00,30.0,26.0,-100.00,SSE,164,0.0,0.0,86,0.00,,,0.04,0.000000,,2013-01-03 05:33:00,
2013-01-03 00:42:00,30.0,26.0,-100.00,SSE,164,0.0,0.0,86,0.00,,,0.04,0.000000,,2013-01-03 05:42:00,
2013-01-03 00:53:00,30.0,26.0,-100.00,SSE,164,0.0,0.0,86,0.00,,,0.04,0.000000,,2013-01-03 05:53:00,
2013-01-03 01:03:00,30.0,26.0,-100.00,SSE,164,0.0,0.0,86,0.00,,,0.04,0.000000,,2013-01-03 06:03:00,
2013-01-03 01:12:00,30.0,26.0,-100.00,SSE,164,0.0,0.0,86,0.00,,,0.04,0.000000,,2013-01-03 06:12:00,
2013-01-03 01:43:00,29.0,25.0,-100.00,SSE,153,0.0,0.0,86,0.00,,,0.03,0.000000,,2013-01-03 06:43:00,
2013-01-03 01:53:00,29.0,25.0,-100.00,SSE,153,0.0,0.0,86,0.00,,,0.03,0.000000,,2013-01-03 06:53:00,
2013-01-03 02:02:00,29.0,25.0,-100.00,SSE,153,0.0,0.0,86,0.00,,,0.03,0.000000,,2013-01-03 07:02:00,
2013-01-03 02:12:00,29.0,25.0,-100.00,SSE,153,0.0,0.0,86,0.00,,,0.03,0.000000,,2013-01-03 07:12:00,
2013-01-03 02:33:00,29.0,26.0,-100.00,ESE,115,0.0,0.0,87,0.00,,,0.03,0.000000,,2013-01-03 07:33:00,
2013-01-03 02:43:00,29.0,26.0,-100.00,ESE,115,0.0,0.0,87,0.00,,,0.03,0.000000,,2013-01-03 07:43:00,
2013-01-03 02:53:00,29.0,26.0,-100.00,ESE,115,0.0,0.0,87,0.00,,,0.03,0.000000,,2013-01-03 07:53:00,
2013-01-03 03:02:00,29.0,26.0,-100.00,ESE,115,0.0,0.0,87,0.00,,,0.03,0.000000,,2013-01-03 08:02:00,
2013-01-03 03:12:00,29.0,26.0,-100.00,ESE,115,0.0,0.0,87,0.00,,,0.03,0.000000,,2013-01-03 08:12:00,
2013-01-03 03:43:00,29.0,26.0,-100.00,ENE,70,0.0,0.0,88,0.00,,,0.02,0.000000,,2013-01-03 08:43:00,
2013-01-03 03:53:00,29.0,26.0,-100.00,ENE,70,0.0,0.0,88,0.00,,,0.02,0.000000,,2013-01-03 08:53:00,
2013-01-03 04:03:00,29.0,26.0,-100.00,ENE,70,0.0,0.0,88,0.00,,,0.02,0.000000,,2013-01-03 09:03:00,
2013-01-03 04:12:00,29.0,26.0,-100.00,ENE,70,0.0,0.0,88,0.00,,,0.02,0.000000,,2013-01-03 09:12:00,
2013-01-03 04:34:00,29.0,27.0,-100.00,ESE,106,0.0,0.0,91,0.00,,,0.01,0.000000,,2013-01-03 09:34:00,
2013-01-03 04:43:00,29.0,27.0,-100.00,ESE,106,0.0,0.0,91,0.00,,,0.01,0.000000,,2013-01-03 09:43:00,
2013-01-03 04:53:00,29.0,27.0,-100.00,ESE,106,0.0,0.0,91,0.00,,,0.01,0.000000,,2013-01-03 09:53:00,
2013-01-03 05:02:00,29.0,27.0,-100.00,ESE,106,0.0,0.0,91,0.00,,,0.01,0.000000,,2013-01-03 10:02:00,
2013-01-03 05:12:00,29.0,27.0,-100.00,ESE,106,0.0,0.0,91,0.00,,,0.01,0.000000,,2013-01-03 10:12:00,
2013-01-03 05:33:00,29.0,27.0,-100.00,North,6,0.0,0.0,92,0.00,,,0.01,0.000000,,2013-01-03 10:33:00,
2013-01-03 05:43:00,29.0,27.0,-100.00,North,6,0.0,0.0,92,0.00,,,0.01,0.000000,,2013-01-03 10:43:00,
2013-01-03 05:53:00,29.0,27.0,-100.00,North,6,0.0,0.0,92,0.00,,,0.01,0.000000,,2013-01-03 10:53:00,
2013-01-03 06:03:00,29.0,27.0,-100.00,North,6,0.0,0.0,92,0.00,,,0.01,0.000000,,2013-01-03 11:03:00,
2013-01-03 06:12:00,29.0,27.0,-100.00,North,6,0.0,0.0,92,0.00,,,0.01,0.000000,,2013-01-03 11:12:00,
2013-01-03 06:33:00,29.0,27.0,-100.00,ENE,73,0.0,0.0,91,0.00,,,0.01,0.000000,,2013-01-03 11:33:00,
2013-01-03 06:43:00,29.0,27.0,-100.00,ENE,73,0.0,0.0,91,0.00,,,0.01,0.000000,,2013-01-03 11:43:00,
2013-01-03 06:53:00,29.0,27.0,-100.00,ENE,73,0.0,0.0,91,0.00,,,0.01,0.000000,,2013-01-03 11:53:00,
2013-01-03 07:03:00,29.0,27.0,-100.00,ENE,73,0.0,0.0,91,0.00,,,0.01,0.000000,,2013-01-03 12:03:00,
2013-01-03 07:12:00,29.0,27.0,-100.00,ENE,73,0.0,0.0,91,0.00,,,0.01,0.000000,,2013-01-03 12:12:00,
2013-01-03 07:43:00,29.0,25.0,-100.00,ESE,112,0.0,0.0,85,0.00,,,0.01,0.000000,,2013-01-03 12:43:00,
2013-01-03 07:53:00,29.0,25.0,-100.00,ESE,112,0.0,0.0,85,0.00,,,0.01,0.000000,,2013-01-03 12:53:00,
2013-01-03 08:03:00,29.0,25.0,-100.00,ESE,112,0.0,0.0,85,0.00,,,0.01,0.000000,,2013-01-03 13:03:00,
2013-01-03 08:13:00,29.0,25.0,-100.00,ESE,112,0.0,0.0,85,0.00,,,0.01,0.000000,,2013-01-03 13:13:00,
2013-01-03 08:43:00,28.0,26.0,-100.00,ESE,106,0.0,0.0,93,0.00,,,0.01,11.000000,,2013-01-03 13:43:00,
2013-01-03 08:53:00,28.0,26.0,-100.00,ESE,106,0.0,0.0,93,0.00,,,0.01,11.000000,,2013-01-03 13:53:00,
2013-01-03 09:03:00,28.0,26.0,-100.00,ESE,106,0.0,0.0,93,0.00,,,0.01,11.000000,,2013-01-03 14:03:00,
2013-01-03 09:12:00,28.0,26.0,-100.00,ESE,106,0.0,0.0,93,0.00,,,0.01,11.000000,,2013-01-03 14:12:00,
2013-01-03 09:33:00,29.0,27.0,-100.00,South,186,0.0,0.0,91,0.00,,,0.01,60.000000,,2013-01-03 14:33:00,
2013-01-03 09:43:00,29.0,27.0,-100.00,South,186,0.0,0.0,91,0.00,,,0.01,60.000000,,2013-01-03 14:43:00,
2013-01-03 09:53:00,29.0,27.0,-100.00,South,186,0.0,0.0,91,0.00,,,0.01,60.000000,,2013-01-03 14:53:00,
2013-01-03 10:03:00,29.0,27.0,-100.00,South,186,0.0,0.0,91,0.00,,,0.01,60.000000,,2013-01-03 15:03:00,
2013-01-03 10:12:00,29.0,27.0,-100.00,South,186,0.0,0.0,91,0.00,,,0.01,60.000000,,2013-01-03 15:12:00,
2013-01-03 10:43:00,32.0,27.0,-100.00,SE,138,0.0,0.0,81,0.00,,,-99.99,107.000000,,2013-01-03 15:43:00,
2013-01-03 10:53:00,32.0,27.0,-100.00,SE,138,0.0,0.0,81,0.00,,,-99.99,107.000000,,2013-01-03 15:53:00,
2013-01-03 11:03:00,32.0,27.0,-100.00,SE,138,0.0,0.0,81,0.00,,,-99.99,107.000000,,2013-01-03 16:03:00,
2013-01-03 11:12:00,32.0,27.0,-100.00,SE,138,0.0,0.0,81,0.00,,,-99.99,107.000000,,2013-01-03 16:12:00,
2013-01-03 11:43:00,33.0,23.0,-100.00,SSW,212,0.0,4.0,66,0.00,,,0.01,176.000000,,2013-01-03 16:43:00,
2013-01-03 11:53:00,33.0,23.0,-100.00,SSW,212,0.0,4.0,66,0.00,,,0.01,176.000000,,2013-01-03 16:53:00,
2013-01-03 12:03:00,33.0,23.0,-100.00,SSW,212,0.0,4.0,66,0.00,,,0.01,176.000000,,2013-01-03 17:03:00,
2013-01-03 12:13:00,33.0,23.0,-100.00,SSW,212,0.0,4.0,66,0.00,,,0.01,176.000000,,2013-01-03 17:13:00,
2013-01-03 12:43:00,34.0,21.0,-100.00,West,261,3.0,6.0,59,0.00,,,0.01,310.000000,,2013-01-03 17:43:00,
2013-01-03 12:53:00,34.0,21.0,-100.00,West,261,3.0,6.0,59,0.00,,,0.01,310.000000,,2013-01-03 17:53:00,
2013-01-03 13:03:00,34.0,21.0,-100.00,West,261,3.0,6.0,59,0.00,,,0.01,310.000000,,2013-01-03 18:03:00,
2013-01-03 13:13:00,34.0,21.0,-100.00,West,261,3.0,6.0,59,0.00,,,0.01,310.000000,,2013-01-03 18:13:00,
2013-01-03 13:33:00,35.0,21.0,-100.00,West,281,3.0,9.0,56,0.00,,,0.00,185.000000,,2013-01-03 18:33:00,
2013-01-03 13:43:00,35.0,21.0,-100.00,West,281,3.0,9.0,56,0.00,,,0.00,185.000000,,2013-01-03 18:43:00,
2013-01-03 13:53:00,35.0,21.0,-100.00,West,281,3.0,9.0,56,0.00,,,0.00,185.000000,,2013-01-03 18:53:00,
2013-01-03 14:03:00,35.0,21.0,-100.00,West,281,3.0,9.0,56,0.00,,,0.00,185.000000,,2013-01-03 19:03:00,
2013-01-03 14:12:00,35.0,21.0,-100.00,West,281,3.0,9.0,56,0.00,,,0.00,185.000000,,2013-01-03 19:12:00,
2013-01-03 14:57:00,35.0,18.0,-100.00,SW,228,4.0,14.0,50,0.00,,,0.00,38.000000,,2013-01-03 19:57:00,
2013-01-03 15:03:00,35.0,18.0,-100.00,SW,228,4.0,14.0,50,0.00,,,0.00,38.000000,,2013-01-03 20:03:00,
2013-01-03 15:13:00,35.0,18.0,-100.00,SW,228,4.0,14.0,50,0.00,,,0.00,38.000000,,2013-01-03 20:13:00,
2013-01-03 15:33:00,35.0,20.0,-100.00,South,180,3.0,10.0,54,0.00,,,0.00,26.000000,,2013-01-03 20:33:00,
2013-01-03 15:43:00,35.0,20.0,-100.00,South,180,3.0,10.0,54,0.00,,,0.00,26.000000,,2013-01-03 20:43:00,
2013-01-03 15:53:00,35.0,20.0,-100.00,South,180,3.0,10.0,54,0.00,,,0.00,26.000000,,2013-01-03 20:53:00,
2013-01-03 16:03:00,35.0,20.0,-100.00,South,180,3.0,10.0,54,0.00,,,0.00,26.000000,,2013-01-03 21:03:00,
2013-01-03 16:13:00,35.0,20.0,-100.00,South,180,3.0,10.0,54,0.00,,,0.00,26.000000,,2013-01-03 21:13:00,
2013-01-03 16:51:00,35.0,21.0,-100.00,SSW,197,4.0,7.0,57,0.00,,,0.00,19.000000,,2013-01-03 21:51:00,
2013-01-03 17:03:00,35.0,21.0,-100.00,SSW,197,4.0,7.0,57,0.00,,,0.00,19.000000,,2013-01-03 22:03:00,
2013-01-03 17:12:00,35.0,21.0,-100.00,SSW,197,4.0,7.0,57,0.00,,,0.00,19.000000,,2013-01-03 22:12:00,
2013-01-03 17:43:00,31.0,24.0,-100.00,South,178,2.0,5.0,74,0.00,,,0.00,10.000000,,2013-01-03 22:43:00,
2013-01-03 17:53:00,31.0,24.0,-100.00,South,178,2.0,5.0,74,0.00,,,0.00,10.000000,,2013-01-03 22:53:00,
2013-01-03 18:03:00,31.0,24.0,-100.00,South,178,2.0,5.0,74,0.00,,,0.00,10.000000,,2013-01-03 23:03:00,
2013-01-03 18:12:00,31.0,24.0,-100.00,South,178,2.0,5.0,74,0.00,,,0.00,10.000000,,2013-01-03 23:12:00,
2013-01-03 18:43:00,29.0,25.0,-100.00,South,171,2.0,3.0,83,0.00,,,0.00,1.000000,,2013-01-03 23:43:00,
2013-01-03 18:53:00,29.0,25.0,-100.00,South,171,2.0,3.0,83,0.00,,,0.00,1.000000,,2013-01-03 23:53:00,
2013-01-03 19:03:00,29.0,25.0,-100.00,South,171,2.0,3.0,83,0.00,,,0.00,1.000000,,2013-01-04 00:03:00,
2013-01-03 19:13:00,29.0,25.0,-100.00,South,171,2.0,3.0,83,0.00,,,0.00,1.000000,,2013-01-04 00:13:00,
2013-01-03 19:33:00,28.0,25.0,-100.00,SSW,193,0.0,0.0,88,0.00,,,0.00,0.000000,,2013-01-04 00:33:00,
2013-01-03 19:42:00,28.0,25.0,-100.00,SSW,193,0.0,0.0,88,0.00,,,0.00,0.000000,,2013-01-04 00:42:00,
2013-01-03 19:53:00,28.0,25.0,-100.00,SSW,193,0.0,0.0,88,0.00,,,0.00,0.000000,,2013-01-04 00:53:00,
2013-01-03 20:02:00,28.0,25.0,-100.00,SSW,193,0.0,0.0,88,0.00,,,0.00,0.000000,,2013-01-04 01:02:00,
2013-01-03 20:13:00,28.0,25.0,-100.00,SSW,193,0.0,0.0,88,0.00,,,0.00,0.000000,,2013-01-04 01:13:00,
2013-01-03 20:42:00,27.0,24.0,-100.00,SSE,167,0.0,3.0,90,0.00,,,0.00,0.000000,,2013-01-04 01:42:00,
2013-01-03 20:53:00,27.0,24.0,-100.00,SSE,167,0.0,3.0,90,0.00,,,0.00,0.000000,,2013-01-04 01:53:00,
2013-01-03 21:02:00,27.0,24.0,-100.00,SSE,167,0.0,3.0,90,0.00,,,0.00,0.000000,,2013-01-04 02:02:00,
2013-01-03 21:12:00,27.0,24.0,-100.00,SSE,167,0.0,3.0,90,0.00,,,0.00,0.000000,,2013-01-04 02:12:00,
2013-01-03 21:33:00,26.0,24.0,-100.00,SW,225,0.0,0.0,92,0.00,,,0.00,0.000000,,2013-01-04 02:33:00,
2013-01-03 21:42:00,26.0,24.0,-100.00,SW,225,0.0,0.0,92,0.00,,,0.00,0.000000,,2013-01-04 02:42:00,
2013-01-03 21:53:00,26.0,24.0,-100.00,SW,225,0.0,0.0,92,0.00,,,0.00,0.000000,,2013-01-04 02:53:00,
2013-01-03 22:03:00,26.0,24.0,-100.00,SW,225,0.0,0.0,92,0.00,,,0.00,0.000000,,2013-01-04 03:03:00,
2013-01-03 22:12:00,26.0,24.0,-100.00,SW,225,0.0,0.0,92,0.00,,,0.00,0.000000,,2013-01-04 03:12:00,
2013-01-03 22:43:00,25.0,24.0,-100.00,ENE,65,0.0,3.0,95,0.00,,,0.00,0.000000,,2013-01-04 03:43:00,
2013-01-03 22:53:00,25.0,24.0,-100.00,ENE,65,0.0,3.0,95,0.00,,,0.00,0.000000,,2013-01-04 03:53:00,
2013-01-03 23:02:00,25.0,24.0,-100.00,ENE,65,0.0,3.0,95,0.00,,,0.00,0.000000,,2013-01-04 04:02:00,
2013-01-03 23:12:00,25.0,24.0,-100.00,ENE,65,0.0,3.0,95,0.00,,,0.00,0.000000,,2013-01-04 04:12:00,
2013-01-03 23:32:00,24.0,23.0,-100.00,SSW,203,2.0,4.0,97,0.00,,,0.00,0.000000,,2013-01-04 04:32:00,
2013-01-03 23:42:00,24.0,23.0,-100.00,SSW,203,2.0,4.0,97,0.00,,,0.00,0.000000,,2013-01-04 04:42:00,
2013-01-03 23:53:00,24.0,23.0,-100.00,SSW,203,2.0,4.0,97,0.00,,,0.00,0.000000,,2013-01-04 04:53:00,